Latest Weather Observations for Coldstream

IDV60901

Issued at 3:31 pm EDT Saturday 25 February 2017 (issued every 10 minutes, with the page automatically refreshed every 10 minutes)

About weather observations | Map of Melbourne area stations | Latest observations for Melbourne area | Other Formats
Station Details ID: 086383 Name: COLDSTREAM Lat: -37.72 Lon: 145.41 Height: 83.0 m
Data from the previous 72 hours. | See also: Recent months at Coldstream
Date/Time
EDT
Temp
°C
App
Temp
°C
Dew
Point
°C
Rel
Hum
%
Delta-T
°C
Wind Press
QNH
hPa
Press
MSL
hPa
Rain since
9am
mm
Dir  Spd
km/h
Gust
km/h
Spd
kts
Gust
kts
25/03:30pm 22.1 18.3 9.9 46 6.6 SSE 20 37 11 20 1020.7 1020.5 0.0
25/03:00pm 22.2 17.9 9.4 44 6.9 ESE 22 35 12 19 1021.0 1020.8 0.0
25/02:30pm 21.2 18.2 9.1 46 6.5 SSE 15 26 8 14 1021.7 1021.5 0.0
25/02:00pm 20.1 16.1 8.1 46 6.2 SSE 19 37 10 20 1022.4 1022.2 0.0
25/01:30pm 19.8 15.8 8.2 47 6.0 SSE 19 28 10 15 1022.6 1022.4 0.0
25/01:00pm 19.4 15.8 8.4 49 5.7 SSE 17 28 9 15 1023.0 1022.8 0.0
25/12:30pm 19.1 15.9 8.4 50 5.6 SSE 15 28 8 15 1023.6 1023.4 0.0
25/12:00pm 17.7 14.0 8.0 53 4.9 SSE 17 37 9 20 1024.0 1023.8 0.0
25/11:30am 17.5 13.4 7.8 53 4.9 S 19 30 10 16 1024.3 1024.1 0.0
25/11:00am 16.6 12.3 7.0 53 4.8 S 19 35 10 19 1024.5 1024.3 0.0
25/10:30am 16.4 12.2 7.3 55 4.5 S 19 32 10 17 1024.6 1024.4 0.0
25/10:00am 16.1 11.9 7.6 57 4.2 SSE 19 30 10 16 1024.7 1024.5 0.0
25/09:30am 15.8 12.1 7.8 59 4.0 S 17 24 9 13 1024.8 1024.6 0.0
25/09:00am 14.8 11.4 7.8 63 3.5 S 15 26 8 14 1024.7 1024.5 0.0
25/08:30am 13.9 11.0 8.1 68 2.9 S 13 22 7 12 1024.6 1024.4 0.0
25/08:00am 12.8 10.8 8.7 76 2.0 S 9 15 5 8 1024.5 1024.3 0.0
25/07:30am 11.0 8.9 8.1 82 1.4 S 9 11 5 6 1024.2 1024.0 0.0
25/07:00am 11.4 9.2 7.9 79 1.7 S 9 11 5 6 1024.0 1023.8 0.0
25/06:30am 11.8 9.7 8.3 79 1.7 SSE 9 15 5 8 1024.0 1023.8 0.0
25/06:00am 11.9 8.4 8.6 80 1.6 SE 17 22 9 12 1023.8 1023.6 0.0
25/05:30am 12.4 9.4 9.1 80 1.7 SSE 15 20 8 11 1023.8 1023.6 0.0
25/05:00am 12.5 9.5 9.1 80 1.7 SE 15 20 8 11 1023.7 1023.5 0.0
25/04:30am 12.9 10.0 9.7 81 1.6 SSE 15 22 8 12 1023.8 1023.6 0.0
25/04:00am 13.6 12.5 10.8 83 1.5 SSE 7 17 4 9 1023.9 1023.7 0.0
25/03:30am 13.2 11.9 11.3 88 1.0 S 9 13 5 7 1024.0 1023.8 0.0
25/03:00am 11.4 10.3 10.5 94 0.5 S 7 9 4 5 1024.0 1023.8 0.0
25/02:30am 10.0 8.4 8.1 88 0.9 S 6 7 3 4 1024.3 1024.1 0.0
25/02:00am 11.3 11.1 9.0 86 1.1 CALM 0 0 0 0 1024.6 1024.4 0.0
25/01:30am 13.2 12.6 10.4 83 1.5 S 4 7 2 4 1024.6 1024.4 0.0
25/01:00am 14.4 13.3 10.8 79 1.9 S 7 11 4 6 1024.7 1024.5 0.0
25/12:30am 14.7 13.9 11.1 79 1.9 SSW 6 9 3 5 1024.9 1024.7 0.0
25/12:00am 14.8 13.8 11.0 78 2.0 S 7 15 4 8 1025.1 1024.9 0.0
 
Date/Time
EDT
Temp
°C
App
Temp
°C
Dew
Point
°C
Rel
Hum
%
Delta-T
°C
Wind Press
QNH
hPa
Press
MSL
hPa
Rain since
9am
mm
Dir  Spd
km/h
Gust
km/h
Spd
kts
Gust
kts
24/11:30pm 14.9 13.5 10.9 77 2.1 SSE 9 17 5 9 1025.1 1024.9 0.0
24/11:00pm 15.1 13.6 10.7 75 2.3 SSE 9 15 5 8 1025.3 1025.1 0.0
24/10:30pm 16.0 14.3 9.7 66 3.3 SSE 9 15 5 8 1025.4 1025.2 0.0
24/10:00pm 16.1 14.3 9.3 64 3.5 SSE 9 19 5 10 1025.6 1025.4 0.0
24/09:30pm 16.2 14.0 9.2 63 3.6 S 11 17 6 9 1025.5 1025.3 0.0
24/09:00pm 16.4 14.0 8.6 60 4.0 S 11 19 6 10 1025.2 1025.0 0.0
24/08:30pm 16.4 14.1 8.9 61 3.9 S 11 15 6 8 1025.0 1024.8 0.0
24/08:00pm 16.7 14.0 9.1 61 3.9 S 13 22 7 12 1024.8 1024.6 0.0
24/07:30pm 17.0 13.4 8.4 57 4.4 SSE 17 24 9 13 1024.6 1024.4 0.0
24/07:00pm 17.5 14.0 8.6 56 4.6 S 17 30 9 16 1024.5 1024.3 0.0
24/06:30pm 17.8 14.1 8.1 53 5.0 S 17 30 9 16 1024.5 1024.3 0.0
24/06:00pm 17.9 15.1 8.7 55 4.8 SSE 13 24 7 13 1024.4 1024.2 0.0
24/05:30pm 17.9 14.5 9.3 57 4.5 SSE 17 28 9 15 1024.4 1024.2 0.0
24/05:00pm 18.2 14.7 8.7 54 4.9 S 17 24 9 13 1024.3 1024.1 0.0
24/04:30pm 19.4 16.3 9.0 51 5.5 S 15 26 8 14 1024.2 1024.0 0.0
24/04:00pm 20.5 17.2 9.7 50 5.8 S 17 30 9 16 1024.2 1024.0 0.0
24/03:30pm 20.7 17.8 9.6 49 6.0 S 15 24 8 13 1024.3 1024.1 0.0
24/03:00pm 20.0 16.6 9.0 49 5.8 S 17 30 9 16 1024.4 1024.2 0.0
24/02:30pm 19.5 16.1 9.1 51 5.5 S 17 24 9 13 1024.6 1024.4 0.0
24/02:00pm 19.3 16.1 8.6 50 5.6 SSW 15 24 8 13 1024.5 1024.3 0.0
24/01:30pm 19.2 16.4 9.9 55 5.0 SSE 15 22 8 12 1024.5 1024.3 0.0
24/01:00pm 18.8 15.6 10.1 57 4.6 SSE 17 26 9 14 1024.6 1024.4 0.0
24/12:30pm 18.6 16.1 9.7 56 4.7 S 13 28 7 15 1024.6 1024.4 0.0
24/12:00pm 19.1 16.8 10.6 58 4.6 S 13 26 7 14 1024.8 1024.6 0.0
24/11:30am 18.9 15.3 9.9 56 4.8 S 19 28 10 15 1024.8 1024.6 0.0
24/11:00am 18.2 14.7 10.1 59 4.3 SSE 19 26 10 14 1024.6 1024.4 0.0
24/10:30am 18.1 15.3 11.2 64 3.8 S 17 26 9 14 1024.4 1024.2 0.0
24/10:00am 17.6 15.4 12.1 70 3.0 S 15 22 8 12 1024.4 1024.2 0.0
24/09:30am 16.6 14.1 12.2 75 2.4 S 17 30 9 16 1024.3 1024.1 0.0
24/09:00am 17.4 15.3 12.5 73 2.7 SSE 15 22 8 12 1024.1 1023.9 0.0
24/08:30am 15.9 13.9 12.8 82 1.7 SSE 15 22 8 12 1023.9 1023.7 0.0
24/08:00am 15.3 13.8 13.0 86 1.3 SE 13 19 7 10 1023.5 1023.3 0.0
24/07:30am 15.5 14.4 13.2 86 1.3 SSE 11 15 6 8 1023.3 1023.1 0.0
24/07:00am 15.5 15.1 13.0 85 1.4 SSE 7 9 4 5 1023.1 1022.9 0.0
24/06:30am 15.4 15.1 13.2 87 1.2 SE 7 11 4 6 1022.8 1022.6 0.0
24/06:00am 15.6 15.4 13.1 85 1.4 S 6 11 3 6 1022.5 1022.3 0.0
24/05:30am 15.5 14.9 13.5 88 1.1 SSE 9 17 5 9 1022.2 1022.0 0.0
24/05:00am 15.7 15.1 13.4 86 1.3 SSE 9 17 5 9 1022.0 1021.8 0.0
24/04:30am 15.9 15.4 13.7 87 1.2 SSE 9 19 5 10 1022.1 1021.9 0.0
24/04:00am 16.2 15.7 13.9 86 1.3 S 9 13 5 7 1022.2 1022.0 0.0
24/03:30am 16.2 15.0 13.9 86 1.3 SE 13 19 7 10 1022.2 1022.0 0.0
24/03:00am 16.3 15.9 14.0 86 1.3 SSE 9 13 5 7 1022.2 1022.0 0.0
24/02:30am 16.4 16.6 14.6 89 1.0 SSE 7 13 4 7 1022.3 1022.1 0.0
24/02:00am 16.3 16.1 14.7 90 0.9 SE 9 13 5 7 1022.4 1022.2 0.0
24/01:30am 16.4 16.6 14.6 89 1.0 SE 7 15 4 8 1022.8 1022.6 0.0
24/01:00am 16.6 15.9 14.2 86 1.4 SSE 11 20 6 11 1022.8 1022.6 0.0
24/12:30am 17.2 16.0 13.9 81 1.9 SSE 13 24 7 13 1022.7 1022.5 0.0
24/12:00am 17.4 16.9 13.9 80 2.0 SSE 9 19 5 10 1022.6 1022.4 0.0
 
Date/Time
EDT
Temp
°C
App
Temp
°C
Dew
Point
°C
Rel
Hum
%
Delta-T
°C
Wind Press
QNH
hPa
Press
MSL
hPa
Rain since
9am
mm
Dir  Spd
km/h
Gust
km/h
Spd
kts
Gust
kts
23/11:30pm 17.5 17.1 14.0 80 2.0 S 9 17 5 9 1022.4 1022.2 0.0
23/11:00pm 17.1 16.2 13.8 81 1.9 SSE 11 17 6 9 1022.5 1022.3 0.0
23/10:30pm 16.8 15.8 13.5 81 1.9 SSE 11 17 6 9 1022.3 1022.1 0.0
23/10:00pm 17.1 15.7 13.4 79 2.1 SSE 13 20 7 11 1022.1 1021.9 0.0
23/09:30pm 17.8 15.6 13.3 75 2.5 SSE 17 26 9 14 1021.7 1021.5 0.0
23/09:00pm 19.0 16.3 13.4 70 3.2 SSE 20 32 11 17 1020.9 1020.7 0.0
23/08:30pm 20.3 19.8 12.0 59 4.6 SSW 6 11 3 6 1020.3 1020.1 0.0
23/08:00pm 21.7 20.5 11.7 53 5.6 S 9 13 5 7 1019.6 1019.4 0.0
23/07:30pm 23.4 21.9 11.8 48 6.6 SSW 11 19 6 10 1019.2 1018.9 0.0
23/07:00pm 24.8 23.4 12.1 45 7.3 SSW 11 17 6 9 1018.7 1018.4 0.0
23/06:30pm 25.3 23.6 12.5 45 7.4 S 13 19 7 10 1018.4 1018.1 0.0
23/06:00pm 25.4 23.8 12.9 45 7.3 SSW 13 19 7 10 1018.1 1017.8 0.0
23/05:30pm 25.5 23.9 12.7 45 7.4 S 13 24 7 13 1017.9 1017.6 0.0
23/05:00pm 26.1 24.2 12.9 44 7.7 SW 15 24 8 13 1017.5 1017.2 0.0
23/04:30pm 25.7 23.2 12.2 43 7.8 SW 17 22 9 12 1017.6 1017.3 0.0
23/04:00pm 25.9 24.0 13.1 45 7.5 WSW 15 22 8 12 1017.6 1017.3 0.0
23/03:30pm 25.3 24.6 13.2 47 7.1 SSW 9 15 5 8 1017.7 1017.4 0.0
23/03:00pm 25.2 23.4 13.4 48 6.9 SW 15 30 8 16 1018.0 1017.7 0.0
23/02:30pm 25.5 23.3 13.4 47 7.1 W 17 22 9 12 1017.8 1017.5 0.0
23/02:00pm 25.1 23.7 13.3 48 6.9 WSW 13 26 7 14 1017.9 1017.6 0.0
23/01:30pm 24.5 23.6 12.5 47 6.9 WSW 9 15 5 8 1018.0 1017.7 0.0
23/01:00pm 24.1 23.0 13.0 50 6.4 W 11 20 6 11 1018.2 1017.9 0.0
23/12:30pm 23.2 21.5 12.5 51 6.1 WSW 13 24 7 13 1018.3 1018.0 0.0
23/12:00pm 22.7 21.0 12.3 52 5.9 W 13 19 7 10 1018.4 1018.1 0.0
23/11:30am 22.4 20.7 12.4 53 5.7 W 13 20 7 11 1018.4 1018.1 0.0
23/11:00am 21.5 19.8 12.4 56 5.1 SSW 13 20 7 11 1018.4 1018.1 0.0
23/10:30am 21.6 20.1 13.2 59 4.8 SW 13 30 7 16 1018.1 1017.8 0.0
23/10:00am 20.6 19.4 12.8 61 4.4 NW 11 15 6 8 1017.8 1017.5 0.0
23/09:30am 18.7 19.3 13.1 70 3.2 NNW 2 7 1 4 1017.5 1017.2 0.0
23/09:00am 16.7 17.9 13.8 83 1.6 CALM 0 6 0 3 1017.3 1017.0 0.0
23/08:30am 14.1 15.3 13.9 99 0.1 CALM 0 0 0 0 1016.8 1016.5 0.0
23/08:00am 12.1 12.7 11.9 99 0.1 CALM 0 0 0 0 1016.3 1016.0 0.0
23/07:30am 9.3 9.0 8.8 97 0.2 CALM 0 0 0 0 1015.7 1015.4 0.0
23/07:00am 9.0 8.6 8.4 96 0.3 CALM 0 0 0 0 1015.2 1014.9 0.0
23/06:30am 9.1 8.7 8.3 95 0.4 CALM 0 0 0 0 1014.6 1014.3 0.0
23/06:00am 9.8 9.6 9.0 95 0.4 CALM 0 0 0 0 1014.3 1014.0 0.0
23/05:30am 10.2 10.1 9.3 94 0.4 CALM 0 0 0 0 1013.9 1013.7 0.0
23/05:00am 11.0 11.1 10.1 94 0.5 CALM 0 6 0 3 1013.7 1013.5 0.0
23/04:30am 12.1 12.5 11.2 94 0.5 CALM 0 4 0 2 1013.4 1013.2 0.0
23/04:00am 11.9 12.1 10.5 91 0.7 CALM 0 0 0 0 1013.3 1013.1 0.0
23/03:30am 12.6 12.5 10.8 89 0.9 S 2 6 1 3 1013.2 1013.0 0.0
23/03:00am 12.9 13.1 10.6 86 1.2 CALM 0 0 0 0 1013.0 1012.8 0.0
23/02:30am 14.3 14.5 11.8 85 1.3 S 2 9 1 5 1013.1 1012.9 0.0
23/02:00am 15.6 15.2 12.5 82 1.7 E 6 13 3 7 1013.1 1012.9 0.0
23/01:30am 16.7 17.4 12.3 75 2.4 CALM 0 6 0 3 1013.3 1013.1 0.0
23/01:00am 17.7 16.8 12.6 72 2.8 N 9 13 5 7 1012.6 1012.4 0.0
23/12:30am 19.7 16.7 12.7 64 4.0 SW 20 35 11 19 1011.4 1011.2 0.0
23/12:09am 20.4 15.9 12.6 61 4.4 SW 28 50 15 27 1010.7 1010.5 0.0
23/12:00am 22.7 18.5 11.1 48 6.5 SW 24 44 13 24 1010.4 1010.2 0.0
 
Date/Time
EDT
Temp
°C
App
Temp
°C
Dew
Point
°C
Rel
Hum
%
Delta-T
°C
Wind Press
QNH
hPa
Press
MSL
hPa
Rain since
9am
mm
Dir  Spd
km/h
Gust
km/h
Spd
kts
Gust
kts
22/11:50pm 21.3 18.5 8.6 44 6.7 SSW 13 33 7 18 1009.8 1009.6 0.0
22/11:30pm 14.9 15.1 10.5 75 2.3 CALM 0 0 0 0 1009.3 1009.1 0.0
22/11:00pm 15.9 15.6 10.0 68 3.1 S 2 6 1 3 1009.4 1009.2 0.0
22/10:30pm 15.4 15.5 10.0 70 2.8 CALM 0 4 0 2 1009.3 1009.1 0.0
22/10:00pm 15.9 16.1 10.4 70 2.9 CALM 0 0 0 0 1009.3 1009.1 0.0
22/09:30pm 17.5 17.6 10.1 62 3.9 CALM 0 4 0 2 1009.2 1009.0 0.0
22/09:00pm 20.2 20.3 10.0 52 5.5 CALM 0 0 0 0 1009.1 1008.9 0.0
22/08:30pm 23.9 23.0 7.9 36 8.5 ENE 2 7 1 4 1009.0 1008.7 0.0
22/08:28pm 24.2 23.3 7.8 35 8.7 ENE 2 7 1 4 1009.0 1008.7 0.0
22/08:00pm 29.2 26.9 4.6 21 12.7 NE 6 9 3 5 1008.7 1008.4 0.0
22/07:30pm 30.9 26.6 3.0 17 14.2 NNE 15 28 8 15 1008.7 1008.4 0.0
22/07:00pm 31.2 27.1 4.1 18 14.1 N 15 22 8 12 1009.2 1009.0 0.0
22/06:30pm 31.7 26.5 3.7 17 14.4 NNW 20 32 11 17 1009.4 1009.2 0.0
22/06:00pm 31.9 26.9 4.6 18 14.3 N 20 39 11 21 1009.0 1008.7 0.0
22/05:30pm 31.7 26.3 4.5 18 14.2 N 22 37 12 20 1009.6 1009.4 0.0
22/05:00pm 31.8 24.5 4.6 18 14.3 N 32 50 17 27 1009.6 1009.4 0.0
22/04:34pm 32.1 25.6 4.8 18 14.4 N 28 46 15 25 1009.8 1009.6 0.0
22/04:30pm 31.9 24.5 3.8 17 14.5 NNE 32 46 17 25 1009.8 1009.6 0.0
22/04:11pm 32.3 25.7 4.2 17 14.7 N 28 46 15 25 1010.0 1009.8 0.0
22/04:00pm 31.7 24.6 5.3 19 14.0 N 32 48 17 26 1010.1 1009.9 0.0

Latest Capital City Observations: Canberra | Sydney | Melbourne | Brisbane | Adelaide | Perth | Hobart | Darwin

Other Formats:

Comma delimited format used in spreadsheet applications
http://www.bom.gov.au/fwo/IDV60901/IDV60901.94864.axf

JavaScript Object Notation format (JSON) in row-major order
http://www.bom.gov.au/fwo/IDV60901/IDV60901.94864.json